Time;durP1;ratioP1;P1;durP2;ratioP2;P2;SDS_P1;SDS_P2;PMS_P1;PMS_P2;Temp;Humidity;BMP_temperature;BMP_pressure;BME280_temperature;BME280_humidity;BME280_pressure;Samples;Min_cycle;Max_cycle;Signal;HPM_P1;HPM_P2
2022/06/10 00:00:58;;;;;;;5.65;1.38;;;12.60;99.90;;;;;;4986366;28;20484;-76
2022/06/10 00:03:25;;;;;;;4.03;1.77;;;12.60;99.90;;;;;;4988264;28;20050;-77
2022/06/10 00:05:54;;;;;;;3.03;1.60;;;12.60;99.90;;;;;;4984134;28;20454;-77
2022/06/10 00:08:28;;;;;;;4.28;1.35;;;12.50;99.90;;;;;;4985542;28;20069;-77
2022/06/10 00:10:55;;;;;;;6.25;1.20;;;12.50;99.90;;;;;;4987761;28;20059;-77
2022/06/10 00:13:26;;;;;;;5.53;1.73;;;12.50;99.90;;;;;;4985954;28;20025;-78
2022/06/10 00:15:53;;;;;;;4.57;1.30;;;12.50;99.90;;;;;;4990416;28;20034;-77
2022/06/10 00:18:19;;;;;;;6.30;1.30;;;12.50;99.90;;;;;;4983836;28;20130;-77
2022/06/10 00:20:46;;;;;;;4.47;1.60;;;12.40;99.90;;;;;;4991142;28;20026;-76
2022/06/10 00:23:11;;;;;;;3.65;1.52;;;12.40;99.90;;;;;;4980196;28;20038;-76
2022/06/10 00:25:40;;;;;;;4.47;1.70;;;12.40;99.90;;;;;;4985549;28;20089;-77
2022/06/10 00:28:15;;;;;;;4.22;1.58;;;12.30;99.90;;;;;;4991711;28;20034;-78
2022/06/10 00:30:42;;;;;;;3.55;1.50;;;12.30;99.90;;;;;;4996019;28;20129;-75
2022/06/10 00:33:08;;;;;;;3.33;1.40;;;12.30;99.90;;;;;;4997710;28;20034;-78
2022/06/10 00:35:43;;;;;;;2.83;1.55;;;12.20;99.90;;;;;;4999042;28;20053;-78
2022/06/10 00:38:09;;;;;;;6.25;1.38;;;12.30;99.90;;;;;;4994729;28;20022;-76
2022/06/10 00:40:46;;;;;;;3.80;1.60;;;12.30;99.90;;;;;;4984534;28;20026;-78
2022/06/10 00:43:14;;;;;;;5.90;1.40;;;12.30;99.90;;;;;;4988654;28;20037;-78
2022/06/10 00:46:01;;;;;;;5.75;1.42;;;12.30;99.90;;;;;;4990574;28;20026;-77
2022/06/10 00:48:33;;;;;;;3.80;1.42;;;12.30;99.90;;;;;;5007516;28;20031;-79
2022/06/10 00:51:23;;;;;;;5.00;1.30;;;12.30;99.90;;;;;;4992207;28;20034;-78
2022/06/10 00:53:57;;;;;;;5.22;2.05;;;12.30;99.90;;;;;;5007873;28;20038;-78
2022/06/10 00:56:28;;;;;;;3.67;1.70;;;12.20;99.90;;;;;;5007007;28;20034;-78
2022/06/10 00:59:08;;;;;;;5.80;1.88;;;12.20;99.90;;;;;;4996929;28;20030;-78
2022/06/10 01:01:46;;;;;;;3.40;1.58;;;12.20;99.90;;;;;;4989512;28;20070;-77
2022/06/10 01:04:15;;;;;;;5.10;1.60;;;12.10;99.90;;;;;;4992704;28;20026;-78
2022/06/10 01:06:41;;;;;;;4.90;1.58;;;12.10;99.90;;;;;;4992618;28;20026;-79
2022/06/10 01:09:10;;;;;;;7.43;1.98;;;12.20;99.90;;;;;;4990491;28;20034;-76
2022/06/10 01:11:53;;;;;;;3.47;1.30;;;12.10;99.90;;;;;;4992853;28;20034;-79
2022/06/10 01:14:51;;;;;;;3.70;1.60;;;12.10;99.90;;;;;;5001684;28;20511;-78
2022/06/10 01:17:35;;;;;;;5.07;1.40;;;12.10;99.90;;;;;;4996739;28;20034;-78
2022/06/10 01:20:09;;;;;;;;;;;12.10;99.90;;;;;;5014289;28;20062;-79
2022/06/10 01:23:03;;;;;;;3.50;1.63;;;12.10;99.90;;;;;;4997475;28;20480;-79
2022/06/10 01:25:43;;;;;;;4.32;1.90;;;12.10;99.90;;;;;;4999014;28;20500;-75
2022/06/10 01:28:21;;;;;;;2.28;1.45;;;12.10;99.90;;;;;;4998136;28;20037;-79
2022/06/10 01:31:16;;;;;;;8.77;1.90;;;12.00;99.90;;;;;;5013646;28;20045;-78
2022/06/10 01:34:13;;;;;;;5.22;2.28;;;11.90;99.90;;;;;;4998855;28;20034;-79
2022/06/10 01:37:02;;;;;;;5.93;2.03;;;11.90;99.90;;;;;;4972070;28;20529;-79
2022/06/10 01:40:22;;;;;;;3.72;2.08;;;11.80;99.90;;;;;;4993369;28;20029;-78
2022/06/10 01:43:16;;;;;;;2.70;1.80;;;11.70;99.90;;;;;;5000757;28;20088;-78
2022/06/10 01:45:54;;;;;;;4.47;2.20;;;11.60;99.90;;;;;;4995057;28;20070;-79
2022/06/10 01:48:43;;;;;;;4.53;2.00;;;11.60;99.90;;;;;;4997106;28;20061;-79
2022/06/10 01:51:17;;;;;;;2.53;1.40;;;11.70;99.90;;;;;;4995901;28;20081;-79
2022/06/10 01:53:54;;;;;;;4.78;1.92;;;11.70;99.90;;;;;;4994945;28;20038;-78
2022/06/10 01:56:30;;;;;;;3.25;1.58;;;11.70;99.90;;;;;;4991293;28;20094;-78
2022/06/10 01:59:23;;;;;;;4.32;1.20;;;11.60;99.90;;;;;;4991195;28;20034;-79
2022/06/10 02:01:58;;;;;;;8.38;1.80;;;11.70;99.90;;;;;;4979696;28;20038;-79
2022/06/10 02:04:30;;;;;;;6.22;1.90;;;11.70;99.90;;;;;;5000378;28;20026;-79
2022/06/10 02:07:17;;;;;;;5.15;1.75;;;11.60;99.90;;;;;;4995352;28;20117;-78
2022/06/10 02:09:49;;;;;;;4.00;1.35;;;11.60;99.90;;;;;;4995447;28;20025;-78
2022/06/10 02:12:31;;;;;;;5.63;2.08;;;11.60;99.90;;;;;;4995391;28;20023;-78
2022/06/10 02:15:04;;;;;;;7.43;1.88;;;11.60;99.90;;;;;;4997912;28;20026;-78
2022/06/10 02:17:41;;;;;;;3.65;1.50;;;11.60;99.90;;;;;;4994485;28;20036;-78
2022/06/10 02:20:13;;;;;;;6.22;1.90;;;11.60;99.90;;;;;;4988715;28;20033;-79
2022/06/10 02:22:48;;;;;;;3.22;1.60;;;11.50;99.90;;;;;;4993516;28;20022;-78
2022/06/10 02:25:23;;;;;;;5.32;1.60;;;11.50;99.90;;;;;;4997541;28;20049;-78
2022/06/10 02:27:56;;;;;;;6.55;1.95;;;11.50;99.90;;;;;;4990872;28;20030;-78
2022/06/10 02:30:32;;;;;;;5.32;1.88;;;11.60;99.90;;;;;;4985857;28;20026;-78
2022/06/10 02:32:58;;;;;;;5.60;1.65;;;11.60;99.90;;;;;;4991868;28;20507;-78
2022/06/10 02:35:29;;;;;;;6.95;1.70;;;11.60;99.90;;;;;;4984559;28;20080;-78
2022/06/10 02:38:09;;;;;;;4.00;2.00;;;11.50;99.90;;;;;;4988727;28;20084;-77
2022/06/10 02:40:51;;;;;;;2.45;1.38;;;11.50;99.90;;;;;;4989475;28;20034;-79
2022/06/10 02:43:26;;;;;;;7.35;1.60;;;11.50;99.90;;;;;;4999669;28;20049;-78
2022/06/10 02:45:57;;;;;;;5.45;1.90;;;11.50;99.90;;;;;;4998931;28;20034;-79
2022/06/10 02:48:44;;;;;;;5.80;1.92;;;11.50;99.90;;;;;;4991377;28;20023;-77
2022/06/10 02:51:15;;;;;;;6.55;1.88;;;11.50;99.90;;;;;;4993841;28;20035;-78
2022/06/10 02:53:41;;;;;;;5.72;2.10;;;11.50;99.90;;;;;;5001648;28;20031;-77
2022/06/10 02:56:22;;;;;;;2.78;1.80;;;11.50;99.90;;;;;;4994163;28;20810;-79
2022/06/10 03:01:55;;;;;;;5.53;2.00;;;11.40;99.90;;;;;;5000464;28;20029;-77
2022/06/10 03:04:49;;;;;;;5.10;2.05;;;11.40;99.90;;;;;;4990403;28;20023;-78
2022/06/10 03:07:57;;;;;;;4.78;1.70;;;11.40;99.90;;;;;;5003382;28;20037;-78
2022/06/10 03:10:38;;;;;;;2.85;1.75;;;11.40;99.90;;;;;;4998642;28;20412;-77
2022/06/10 03:13:16;;;;;;;3.20;1.95;;;11.40;99.90;;;;;;4998680;28;20027;-77
2022/06/10 03:15:54;;;;;;;4.82;1.85;;;11.40;99.90;;;;;;5003682;28;20185;-79
2022/06/10 03:18:41;;;;;;;4.35;1.67;;;11.40;99.90;;;;;;4996564;28;20022;-79
2022/06/10 03:21:24;;;;;;;4.28;1.55;;;11.30;99.90;;;;;;4994210;28;20041;-77
2022/06/10 03:24:08;;;;;;;4.28;2.03;;;11.30;99.90;;;;;;4992955;28;20372;-78
2022/06/10 03:26:40;;;;;;;;;;;11.30;99.90;;;;;;4995211;28;20130;-79
2022/06/10 03:29:08;;;;;;;5.03;1.65;;;11.20;99.90;;;;;;5004725;28;19925;-78
2022/06/10 03:31:39;;;;;;;4.80;2.00;;;11.30;99.90;;;;;;4991909;28;20026;-79
2022/06/10 03:34:18;;;;;;;3.97;1.83;;;11.30;99.90;;;;;;4996737;28;20496;-77
2022/06/10 03:36:46;;;;;;;7.68;2.15;;;11.30;99.90;;;;;;4992298;28;20030;-75
2022/06/10 03:39:12;;;;;;;5.00;1.90;;;11.30;99.90;;;;;;4986218;28;20030;-78
2022/06/10 03:41:53;;;;;;;7.28;1.80;;;11.30;99.90;;;;;;4988071;28;20086;-77
2022/06/10 03:44:20;;;;;;;4.65;2.25;;;11.30;99.90;;;;;;5014868;28;20034;-78
2022/06/10 03:46:51;;;;;;;6.05;2.33;;;11.30;99.90;;;;;;4986117;28;20026;-77
2022/06/10 03:49:23;;;;;;;5.72;2.15;;;11.30;99.90;;;;;;4991005;28;20042;-78
2022/06/10 03:51:50;;;;;;;5.93;1.88;;;11.30;99.90;;;;;;4993295;28;20108;-75
2022/06/10 03:54:19;;;;;;;3.97;1.92;;;11.30;99.90;;;;;;4990839;28;20387;-75
2022/06/10 03:56:46;;;;;;;4.68;1.70;;;11.40;99.90;;;;;;4988998;28;20062;-77
2022/06/10 03:59:12;;;;;;;6.95;2.33;;;11.40;99.90;;;;;;4991814;28;20062;-76
2022/06/10 04:01:38;;;;;;;5.13;2.20;;;11.40;99.90;;;;;;4989444;28;20050;-76
2022/06/10 04:04:04;;;;;;;7.70;2.10;;;11.40;99.90;;;;;;4991839;28;20030;-77
2022/06/10 04:06:31;;;;;;;5.95;1.75;;;11.40;99.90;;;;;;4993531;28;20046;-77
2022/06/10 04:08:57;;;;;;;5.35;2.25;;;11.40;99.90;;;;;;4991889;28;20034;-78
2022/06/10 04:11:23;;;;;;;5.97;2.33;;;11.50;99.90;;;;;;4990642;28;20035;-76
2022/06/10 04:13:48;;;;;;;5.38;2.50;;;11.40;99.90;;;;;;4995889;28;20057;-78
2022/06/10 04:16:14;;;;;;;7.43;3.10;;;11.50;99.90;;;;;;4994689;28;20049;-77
2022/06/10 04:18:40;;;;;;;4.63;2.30;;;11.50;99.90;;;;;;5003639;28;20037;-78
2022/06/10 04:21:06;;;;;;;8.55;2.88;;;11.60;99.90;;;;;;4993503;28;20113;-78
2022/06/10 04:23:32;;;;;;;8.25;2.90;;;11.70;99.90;;;;;;4993102;28;20027;-77
2022/06/10 04:25:58;;;;;;;5.78;2.13;;;11.80;99.90;;;;;;4990641;28;20029;-74
2022/06/10 04:28:24;;;;;;;6.10;2.78;;;12.00;99.90;;;;;;4990989;28;20030;-74
2022/06/10 04:30:51;;;;;;;5.95;2.30;;;12.30;99.90;;;;;;4990669;28;20072;-74
2022/06/10 04:33:18;;;;;;;4.53;1.83;;;12.90;99.90;;;;;;4989463;28;20443;-74
2022/06/10 04:35:46;;;;;;;5.30;1.65;;;13.30;99.90;;;;;;4983895;28;20037;-74
2022/06/10 04:38:14;;;;;;;5.82;2.40;;;13.30;99.90;;;;;;4986490;28;20034;-74
2022/06/10 04:40:41;;;;;;;4.90;2.00;;;13.40;99.90;;;;;;4986576;28;20477;-78
2022/06/10 04:43:08;;;;;;;9.77;2.90;;;13.40;99.90;;;;;;4995145;28;20081;-77
2022/06/10 04:45:41;;;;;;;7.25;2.28;;;13.50;99.90;;;;;;4985072;28;20097;-76
2022/06/10 04:48:07;;;;;;;7.97;2.53;;;13.50;99.90;;;;;;4988939;28;20031;-76
2022/06/10 04:50:33;;;;;;;4.10;2.03;;;13.60;99.90;;;;;;4985975;28;20027;-76
2022/06/10 04:52:59;;;;;;;6.00;2.00;;;13.70;99.90;;;;;;4992178;28;20049;-76
2022/06/10 04:55:27;;;;;;;4.63;2.50;;;13.70;99.90;;;;;;4989926;28;20031;-76
2022/06/10 04:57:54;;;;;;;5.47;2.40;;;13.80;99.90;;;;;;4984756;28;20037;-76
2022/06/10 05:00:32;;;;;;;7.10;2.70;;;14.00;99.90;;;;;;4982374;28;20498;-76
2022/06/10 05:02:59;;;;;;;6.95;2.50;;;14.10;99.90;;;;;;5001129;28;20034;-76
2022/06/10 05:05:26;;;;;;;4.03;2.25;;;14.20;99.90;;;;;;4994567;28;20026;-76
2022/06/10 05:07:51;;;;;;;6.88;2.67;;;14.30;99.90;;;;;;5003037;28;20026;-76
2022/06/10 05:10:18;;;;;;;5.80;2.50;;;14.40;99.90;;;;;;5004112;28;20033;-76
2022/06/10 05:12:44;;;;;;;6.75;2.78;;;14.50;99.90;;;;;;4987861;28;20018;-76
2022/06/10 05:15:15;;;;;;;7.47;2.50;;;14.60;99.90;;;;;;4995188;28;20326;-76
2022/06/10 05:17:41;;;;;;;4.28;2.60;;;14.70;99.90;;;;;;4989250;28;20125;-74
2022/06/10 05:20:08;;;;;;;6.75;2.58;;;14.80;99.90;;;;;;4979045;28;20018;-75
2022/06/10 05:22:34;;;;;;;5.85;2.72;;;14.90;99.90;;;;;;4989529;28;20038;-75
2022/06/10 05:25:00;;;;;;;7.97;2.60;;;15.00;99.90;;;;;;4970141;23;20054;-76
2022/06/10 05:27:26;;;;;;;9.38;2.75;;;15.10;99.90;;;;;;4947379;28;20027;-77
2022/06/10 05:29:51;;;;;;;4.32;2.55;;;15.20;99.90;;;;;;4961433;28;20031;-74
2022/06/10 05:32:17;;;;;;;5.50;2.40;;;15.30;99.90;;;;;;4943547;28;20040;-75
2022/06/10 05:34:46;;;;;;;4.68;2.47;;;15.30;99.90;;;;;;4947392;28;20023;-74
2022/06/10 05:37:18;;;;;;;6.15;2.30;;;15.40;99.90;;;;;;4946000;28;20094;-76
2022/06/10 05:39:45;;;;;;;7.25;3.03;;;15.60;99.90;;;;;;4949345;28;20090;-77
2022/06/10 05:42:11;;;;;;;9.77;3.72;;;15.60;99.90;;;;;;4950389;28;20606;-77
2022/06/10 05:44:39;;;;;;;8.68;2.67;;;15.70;99.90;;;;;;4950209;28;20094;-76
2022/06/10 05:47:10;;;;;;;8.77;3.00;;;15.80;99.90;;;;;;4943429;28;20045;-76
2022/06/10 05:49:39;;;;;;;5.93;2.97;;;15.90;99.90;;;;;;4950086;28;20054;-76
2022/06/10 05:52:06;;;;;;;4.97;2.63;;;15.90;99.90;;;;;;4949766;28;20432;-76
2022/06/10 05:54:33;;;;;;;7.32;2.80;;;15.90;99.90;;;;;;4948700;28;20082;-76
2022/06/10 05:56:59;;;;;;;5.88;2.63;;;16.00;99.90;;;;;;4945382;28;20059;-76
2022/06/10 05:59:29;;;;;;;7.57;3.00;;;16.10;99.90;;;;;;4946121;28;20063;-76
2022/06/10 06:01:56;;;;;;;5.70;2.50;;;16.20;99.90;;;;;;4949476;28;20020;-75
2022/06/10 06:04:23;;;;;;;8.82;3.33;;;16.30;99.90;;;;;;4945136;28;20102;-76
2022/06/10 06:06:48;;;;;;;6.75;2.70;;;16.40;99.90;;;;;;4946552;28;20106;-75
2022/06/10 06:09:15;;;;;;;10.48;2.85;;;16.60;99.90;;;;;;4943346;28;20023;-78
2022/06/10 06:11:41;;;;;;;6.70;2.75;;;16.70;99.90;;;;;;4946381;28;20031;-77
2022/06/10 06:14:07;;;;;;;6.35;2.30;;;16.80;99.90;;;;;;4943226;28;20102;-75
2022/06/10 06:16:34;;;;;;;6.18;2.95;;;16.90;99.90;;;;;;4948719;28;20042;-76
2022/06/10 06:18:59;;;;;;;9.50;3.13;;;17.00;99.90;;;;;;4941477;28;20039;-75
2022/06/10 06:21:25;;;;;;;12.50;3.33;;;17.10;99.90;;;;;;4942187;28;20024;-72
2022/06/10 06:23:51;;;;;;;8.18;3.08;;;17.20;99.90;;;;;;4947834;28;20476;-74
2022/06/10 06:26:16;;;;;;;6.55;2.85;;;17.20;99.90;;;;;;4944280;28;20126;-73
2022/06/10 06:28:43;;;;;;;4.53;2.88;;;17.30;99.90;;;;;;4938588;28;20039;-73
2022/06/10 06:31:10;;;;;;;5.10;2.60;;;17.40;99.90;;;;;;4943909;28;20126;-74
2022/06/10 06:33:35;;;;;;;6.00;2.67;;;17.40;99.90;;;;;;4949316;28;20031;-74
2022/06/10 06:36:01;;;;;;;8.15;2.60;;;17.40;99.90;;;;;;4951438;28;20029;-75
2022/06/10 06:38:28;;;;;;;7.43;3.13;;;17.50;99.90;;;;;;4946287;28;20027;-74
2022/06/10 06:40:54;;;;;;;6.75;2.90;;;17.40;99.90;;;;;;4946491;28;20055;-75
2022/06/10 06:43:19;;;;;;;6.90;2.33;;;17.50;99.90;;;;;;4942762;28;20028;-74
2022/06/10 06:45:45;;;;;;;7.18;2.15;;;17.50;99.90;;;;;;4947979;28;20035;-75
2022/06/10 06:48:12;;;;;;;4.45;2.10;;;17.50;99.90;;;;;;4942562;28;20118;-76
2022/06/10 06:50:47;;;;;;;4.15;2.35;;;17.60;99.90;;;;;;4951710;28;20814;-75
2022/06/10 06:53:13;;;;;;;3.85;2.10;;;17.70;99.90;;;;;;4950326;28;20440;-72
2022/06/10 06:55:40;;;;;;;7.57;2.53;;;17.70;99.90;;;;;;4944800;28;20091;-74
2022/06/10 06:58:09;;;;;;;6.13;1.60;;;17.80;99.90;;;;;;4945488;28;20451;-75
2022/06/10 07:00:35;;;;;;;9.00;2.13;;;17.90;99.90;;;;;;4941273;28;20032;-73
2022/06/10 07:03:00;;;;;;;5.40;1.80;;;18.00;99.90;;;;;;4948047;28;20038;-74
2022/06/10 07:05:26;;;;;;;6.25;2.38;;;18.00;99.90;;;;;;4944688;28;20024;-74
2022/06/10 07:07:52;;;;;;;6.28;2.13;;;18.00;99.90;;;;;;4951183;28;20034;-74
2022/06/10 07:10:20;;;;;;;6.45;1.92;;;17.90;99.90;;;;;;4943753;28;20130;-74
2022/06/10 07:12:45;;;;;;;8.07;2.03;;;17.90;99.90;;;;;;4953251;28;20027;-74
2022/06/10 07:15:12;;;;;;;6.05;1.40;;;17.90;99.90;;;;;;4942506;28;20043;-73
2022/06/10 07:17:38;;;;;;;8.82;2.03;;;17.90;99.90;;;;;;4944042;28;20112;-74
2022/06/10 07:20:05;;;;;;;5.22;1.55;;;17.90;99.90;;;;;;4945806;28;20532;-74
2022/06/10 07:22:30;;;;;;;7.07;1.60;;;17.70;99.90;;;;;;4938953;28;20027;-74
2022/06/10 07:24:56;;;;;;;3.10;1.45;;;17.70;99.90;;;;;;4949708;28;20031;-74
2022/06/10 07:27:22;;;;;;;9.25;1.73;;;17.60;99.90;;;;;;4945326;28;20027;-74
2022/06/10 07:29:49;;;;;;;4.22;1.85;;;17.60;99.90;;;;;;4943696;28;20038;-74
2022/06/10 07:32:15;;;;;;;5.05;1.75;;;17.60;99.90;;;;;;4951165;28;20508;-74
2022/06/10 07:34:41;;;;;;;7.95;1.73;;;17.60;99.90;;;;;;4943927;28;20484;-75
2022/06/10 07:37:07;;;;;;;9.27;2.20;;;17.70;99.90;;;;;;4940811;28;20042;-74
2022/06/10 07:39:34;;;;;;;4.15;1.50;;;17.70;99.90;;;;;;4945092;28;20030;-74
2022/06/10 07:42:00;;;;;;;6.38;2.00;;;17.80;99.90;;;;;;4948285;28;20050;-72
2022/06/10 07:44:31;;;;;;;9.25;1.67;;;17.90;99.90;;;;;;4952366;28;20084;-76
2022/06/10 07:47:00;;;;;;;5.60;1.80;;;17.90;99.90;;;;;;4947884;28;20283;-74
2022/06/10 07:49:26;;;;;;;6.15;1.60;;;18.00;99.90;;;;;;4947938;28;20023;-75
2022/06/10 07:51:55;;;;;;;3.92;1.30;;;18.10;99.90;;;;;;4946950;28;20055;-75
2022/06/10 07:54:20;;;;;;;10.15;1.90;;;18.10;99.90;;;;;;4951262;28;20031;-74
2022/06/10 07:56:46;;;;;;;4.93;1.60;;;18.20;99.90;;;;;;4945247;28;20054;-75
2022/06/10 07:59:12;;;;;;;5.75;2.00;;;18.20;99.90;;;;;;4952676;28;20489;-75
2022/06/10 08:01:38;;;;;;;4.22;1.52;;;18.20;99.90;;;;;;4955804;28;20028;-76
2022/06/10 08:04:08;;;;;;;4.05;1.60;;;18.30;99.90;;;;;;4948065;28;20650;-75
2022/06/10 08:06:37;;;;;;;6.90;1.95;;;18.40;99.90;;;;;;4955251;28;20028;-75
2022/06/10 08:09:03;;;;;;;8.73;1.90;;;18.40;99.90;;;;;;4948133;28;20027;-75
2022/06/10 08:11:29;;;;;;;6.75;1.90;;;18.50;99.70;;;;;;4960302;28;20033;-76
2022/06/10 08:13:54;;;;;;;3.50;1.67;;;18.60;99.30;;;;;;4953329;28;20053;-74
2022/06/10 08:16:20;;;;;;;7.97;1.98;;;18.60;98.80;;;;;;4944079;28;20034;-76
2022/06/10 08:18:47;;;;;;;7.68;2.13;;;18.60;98.60;;;;;;4943884;28;20381;-73
2022/06/10 08:23:57;;;;;;;4.38;1.73;;;18.60;98.30;;;;;;4954037;28;20038;-76
2022/06/10 08:26:25;;;;;;;9.32;1.75;;;18.70;97.80;;;;;;4951023;28;20024;-74
2022/06/10 08:28:51;;;;;;;3.78;1.50;;;18.70;97.10;;;;;;4964718;28;20057;-73
2022/06/10 08:31:17;;;;;;;6.15;1.70;;;18.80;97.00;;;;;;4957485;28;20031;-77
2022/06/10 08:33:43;;;;;;;4.35;1.70;;;18.90;97.20;;;;;;4954816;28;20507;-75
2022/06/10 08:36:10;;;;;;;8.88;2.05;;;18.90;97.20;;;;;;4948029;28;20034;-75
2022/06/10 08:38:37;;;;;;;6.00;1.50;;;19.00;96.20;;;;;;4950005;28;20031;-73
2022/06/10 08:41:07;;;;;;;5.13;1.35;;;19.10;94.80;;;;;;4953868;28;20027;-74
2022/06/10 08:43:39;;;;;;;5.72;1.30;;;19.10;94.50;;;;;;4956045;28;20158;-75
2022/06/10 08:46:25;;;;;;;5.72;1.52;;;19.20;94.00;;;;;;4944679;28;20089;-73
2022/06/10 08:49:17;;;;;;;7.15;1.55;;;19.40;94.10;;;;;;4951304;28;20105;-75
2022/06/10 08:52:01;;;;;;;5.13;1.58;;;19.40;93.50;;;;;;4961102;28;20055;-73
2022/06/10 08:54:59;;;;;;;8.25;1.60;;;19.50;93.00;;;;;;4955121;28;20059;-75
2022/06/10 08:57:27;;;;;;;6.78;1.25;;;19.60;91.80;;;;;;4939728;28;20134;-74
2022/06/10 08:59:57;;;;;;;8.02;1.70;;;19.50;91.80;;;;;;4944096;28;20149;-75
2022/06/10 09:02:41;;;;;;;6.18;1.45;;;19.50;91.90;;;;;;4946027;28;20249;-73
2022/06/10 09:05:21;;;;;;;3.72;1.73;;;19.50;92.10;;;;;;4943995;28;20488;-73
2022/06/10 09:07:54;;;;;;;9.05;1.80;;;19.60;92.30;;;;;;4954446;28;20655;-75
2022/06/10 09:10:23;;;;;;;10.77;1.88;;;19.80;92.40;;;;;;4944633;28;20078;-75
2022/06/10 09:13:13;;;;;;;6.13;1.80;;;19.80;91.20;;;;;;4943124;28;20034;-74
2022/06/10 09:15:47;;;;;;;3.95;1.20;;;19.80;90.60;;;;;;4942976;28;20075;-75
2022/06/10 09:18:27;;;;;;;3.92;1.48;;;19.80;90.80;;;;;;4950681;28;20023;-74
2022/06/10 09:21:05;;;;;;;5.85;1.38;;;19.90;90.40;;;;;;4949908;28;20114;-74
2022/06/10 09:23:43;;;;;;;8.32;1.83;;;19.80;90.30;;;;;;4953749;28;20026;-74
2022/06/10 09:26:16;;;;;;;3.75;1.30;;;19.80;90.40;;;;;;4952533;28;20102;-72
2022/06/10 09:28:42;;;;;;;5.32;1.35;;;19.90;90.50;;;;;;4952269;28;20504;-75
2022/06/10 09:31:21;;;;;;;5.25;1.48;;;19.90;90.10;;;;;;4945096;28;20031;-74
2022/06/10 09:34:08;;;;;;;4.50;1.55;;;19.80;90.40;;;;;;4962595;28;20038;-75
2022/06/10 09:36:54;;;;;;;6.18;1.27;;;19.80;90.30;;;;;;4951758;28;20031;-75
2022/06/10 09:42:38;;;;;;;6.97;1.80;;;19.80;90.70;;;;;;4950438;28;20038;-74
2022/06/10 09:45:23;;;;;;;11.02;1.80;;;19.80;90.30;;;;;;4945424;28;20035;-75
2022/06/10 09:48:13;;;;;;;7.35;1.55;;;19.80;90.30;;;;;;4948791;28;20031;-75
2022/06/10 09:51:10;;;;;;;4.63;1.60;;;19.90;90.10;;;;;;4949096;28;20130;-75
2022/06/10 09:53:57;;;;;;;4.78;1.30;;;19.90;90.00;;;;;;4949310;28;20067;-75
2022/06/10 09:57:00;;;;;;;5.93;1.50;;;20.00;90.20;;;;;;4936986;28;20476;-74
2022/06/10 09:59:42;;;;;;;6.93;1.20;;;20.10;90.10;;;;;;4944453;28;20031;-73
2022/06/10 10:02:19;;;;;;;5.03;1.60;;;20.00;89.00;;;;;;4947915;28;20054;-74
2022/06/10 10:04:55;;;;;;;4.55;1.40;;;20.00;89.40;;;;;;4944781;28;20579;-75
2022/06/10 10:07:33;;;;;;;5.72;1.42;;;20.10;89.50;;;;;;4952491;28;20024;-75
2022/06/10 10:10:20;;;;;;;8.75;2.10;;;20.10;88.90;;;;;;4948445;28;20024;-74
2022/06/10 10:12:58;;;;;;;5.43;1.77;;;20.10;89.20;;;;;;4953381;28;20079;-72
2022/06/10 10:15:42;;;;;;;9.15;1.90;;;20.10;88.40;;;;;;4950706;28;20107;-75
2022/06/10 10:18:36;;;;;;;4.68;1.10;;;20.10;88.40;;;;;;4952280;28;20039;-75
2022/06/10 10:21:10;;;;;;;3.22;1.30;;;20.10;89.10;;;;;;4954045;28;20031;-72
2022/06/10 10:23:41;;;;;;;6.38;1.55;;;20.20;88.50;;;;;;4959842;28;20159;-74
2022/06/10 10:26:25;;;;;;;4.88;1.55;;;20.30;88.50;;;;;;4945373;28;20164;-75
2022/06/10 10:29:12;;;;;;;7.15;1.58;;;20.30;87.90;;;;;;4950058;28;20030;-75
2022/06/10 10:31:45;;;;;;;4.82;1.77;;;20.40;87.20;;;;;;4958715;28;20043;-75
2022/06/10 10:34:20;;;;;;;4.47;1.80;;;20.40;87.30;;;;;;4953875;28;20032;-76
2022/06/10 10:36:54;;;;;;;6.28;2.30;;;20.50;85.90;;;;;;4966429;28;20033;-77
2022/06/10 10:39:30;;;;;;;;;;;20.50;86.50;;;;;;4952365;28;20580;-76
2022/06/10 10:42:00;;;;;;;5.85;1.50;;;20.50;86.00;;;;;;4975266;28;19961;-77
2022/06/10 10:44:41;;;;;;;5.22;1.58;;;20.50;86.30;;;;;;4950534;28;20621;-75
2022/06/10 10:47:10;;;;;;;7.68;1.73;;;20.50;85.40;;;;;;4948989;28;20034;-75
2022/06/10 10:49:43;;;;;;;6.88;1.45;;;20.60;85.20;;;;;;4952609;28;20039;-72
2022/06/10 10:52:20;;;;;;;4.00;1.50;;;20.70;84.30;;;;;;4952528;28;20696;-75
2022/06/10 10:54:50;;;;;;;5.35;1.80;;;20.80;84.50;;;;;;4951865;28;20031;-76
2022/06/10 10:57:35;;;;;;;7.88;1.15;;;20.90;83.20;;;;;;4949252;28;20130;-76
2022/06/10 11:00:27;;;;;;;5.63;1.35;;;20.90;83.50;;;;;;4945312;28;20019;-75
2022/06/10 11:02:54;;;;;;;6.50;1.80;;;20.90;82.80;;;;;;4947060;28;20373;-76
2022/06/10 11:05:23;;;;;;;4.95;1.40;;;20.90;83.10;;;;;;4951580;28;20020;-75
2022/06/10 11:08:15;;;;;;;7.15;1.58;;;21.00;83.30;;;;;;4949566;28;20042;-76
2022/06/10 11:11:00;;;;;;;3.72;1.20;;;20.90;82.40;;;;;;4956338;28;20045;-77
2022/06/10 11:13:51;;;;;;;6.13;1.33;;;21.00;82.70;;;;;;4953311;28;20043;-77
2022/06/10 11:16:31;;;;;;;5.47;1.10;;;21.10;82.40;;;;;;4947077;28;20507;-75
2022/06/10 11:19:00;;;;;;;3.33;1.08;;;21.20;82.50;;;;;;4947793;28;20038;-75
2022/06/10 11:21:26;;;;;;;4.65;1.23;;;21.30;82.10;;;;;;4947973;28;20031;-76
2022/06/10 11:23:58;;;;;;;5.78;1.58;;;21.40;81.40;;;;;;4955583;28;20028;-76
2022/06/10 11:26:26;;;;;;;2.88;1.35;;;21.60;81.50;;;;;;4955201;28;20059;-76
2022/06/10 11:29:07;;;;;;;6.15;1.60;;;21.70;80.00;;;;;;4966282;28;20101;-76
2022/06/10 11:31:41;;;;;;;4.00;1.40;;;21.70;80.60;;;;;;4952628;28;20027;-75
2022/06/10 11:34:21;;;;;;;6.28;1.60;;;21.70;80.20;;;;;;4955167;28;20023;-76
2022/06/10 11:36:52;;;;;;;11.13;2.05;;;21.70;80.80;;;;;;4947841;28;20596;-75
2022/06/10 11:39:23;;;;;;;4.63;1.58;;;21.70;80.90;;;;;;4952259;28;20157;-75
2022/06/10 11:42:07;;;;;;;3.97;1.45;;;21.70;79.90;;;;;;4948817;28;20023;-76
2022/06/10 11:44:54;;;;;;;7.45;1.65;;;21.70;80.00;;;;;;4952765;28;20598;-75
2022/06/10 11:47:30;;;;;;;4.40;1.40;;;21.70;79.30;;;;;;4955834;28;20492;-76
2022/06/10 11:50:02;;;;;;;3.00;1.85;;;21.70;78.40;;;;;;4953997;28;20408;-75
2022/06/10 11:52:54;;;;;;;4.20;1.38;;;21.70;79.00;;;;;;4945957;28;20169;-76
2022/06/10 11:55:27;;;;;;;5.97;1.48;;;21.70;78.10;;;;;;4960115;28;20037;-75
2022/06/10 12:00:55;;;;;;;6.38;1.20;;;21.50;77.80;;;;;;4957406;28;20472;-74
2022/06/10 12:03:23;;;;;;;3.55;1.45;;;21.50;78.20;;;;;;4955439;28;20718;-76
2022/06/10 12:06:00;;;;;;;3.70;1.58;;;21.50;78.10;;;;;;4957037;28;20463;-76
2022/06/10 12:08:33;;;;;;;6.22;1.27;;;21.60;78.20;;;;;;4955661;28;20048;-74
2022/06/10 12:11:33;;;;;;;1.88;1.23;;;21.70;78.40;;;;;;4951816;28;20042;-75
2022/06/10 12:14:37;;;;;;;4.88;1.33;;;21.80;77.70;;;;;;4948019;28;20023;-75
2022/06/10 12:17:10;;;;;;;4.50;1.08;;;21.90;77.30;;;;;;4970670;28;20027;-75
2022/06/10 12:19:41;;;;;;;3.00;1.30;;;22.00;77.20;;;;;;4963730;28;20075;-76
2022/06/10 12:22:09;;;;;;;3.53;1.30;;;21.90;77.70;;;;;;4974996;28;20442;-77
2022/06/10 12:24:35;;;;;;;3.70;1.58;;;21.80;77.80;;;;;;4974940;28;20034;-75
2022/06/10 12:27:06;;;;;;;2.60;1.48;;;21.80;78.30;;;;;;4974702;28;20089;-77
2022/06/10 12:29:46;;;;;;;7.30;1.63;;;21.80;78.20;;;;;;4975598;28;20031;-77
2022/06/10 12:32:27;;;;;;;2.92;1.30;;;21.80;78.50;;;;;;4975358;28;20086;-76
2022/06/10 12:34:55;;;;;;;3.47;1.20;;;21.80;78.30;;;;;;4972905;28;20081;-76
2022/06/10 12:37:36;;;;;;;2.28;1.23;;;21.70;77.80;;;;;;4974153;28;20365;-76
2022/06/10 12:40:13;;;;;;;7.25;1.60;;;21.70;78.20;;;;;;4968185;28;20023;-77
2022/06/10 12:43:00;;;;;;;6.75;1.50;;;21.70;78.40;;;;;;4955912;28;20362;-76
2022/06/10 12:45:39;;;;;;;3.95;1.17;;;21.80;78.40;;;;;;4955533;28;20038;-76
2022/06/10 12:48:13;;;;;;;3.33;1.40;;;21.80;78.40;;;;;;4953296;29;20485;-76
2022/06/10 12:50:55;;;;;;;4.28;1.33;;;21.90;77.70;;;;;;4963081;28;20027;-75
2022/06/10 12:53:42;;;;;;;4.97;1.30;;;22.00;77.40;;;;;;4950876;28;20026;-76
2022/06/10 12:56:33;;;;;;;6.00;1.40;;;22.00;76.50;;;;;;4958253;28;20050;-76
2022/06/10 12:59:07;;;;;;;3.72;1.30;;;22.10;76.00;;;;;;4949342;28;20437;-76
2022/06/10 13:01:33;;;;;;;4.18;1.40;;;22.20;75.70;;;;;;4950974;28;20089;-76
2022/06/10 13:04:17;;;;;;;3.65;1.40;;;22.10;75.50;;;;;;4957561;28;20126;-76
2022/06/10 13:06:43;;;;;;;4.53;1.38;;;22.20;75.70;;;;;;4948669;28;20042;-76
2022/06/10 13:09:11;;;;;;;2.72;1.30;;;22.20;75.90;;;;;;4958266;28;20023;-76
2022/06/10 13:11:58;;;;;;;4.53;1.45;;;22.20;75.50;;;;;;4955429;28;20023;-75
2022/06/10 13:14:30;;;;;;;5.65;1.35;;;22.20;75.10;;;;;;4963134;28;20034;-76
2022/06/10 13:16:58;;;;;;;4.60;1.48;;;22.20;74.90;;;;;;4952913;29;20027;-76
2022/06/10 13:19:36;;;;;;;3.50;1.35;;;22.20;75.50;;;;;;4967514;28;20019;-76
2022/06/10 13:22:20;;;;;;;4.88;1.55;;;22.30;75.00;;;;;;4957733;28;20161;-76
2022/06/10 13:24:52;;;;;;;4.40;1.58;;;22.40;75.00;;;;;;4969202;28;20027;-76
2022/06/10 13:27:40;;;;;;;4.22;1.50;;;22.60;74.80;;;;;;4958650;28;20023;-75
2022/06/10 13:30:13;;;;;;;5.63;1.27;;;22.70;74.10;;;;;;4965897;28;20055;-76
2022/06/10 13:32:46;;;;;;;8.73;1.52;;;22.90;73.60;;;;;;4945337;28;20031;-76